createdAt,value
2018-07-27T00:00:40.338Z,21.10
2018-07-27T00:03:08.688Z,21.10
2018-07-27T00:05:37.167Z,21.00
2018-07-27T00:08:05.518Z,21.00
2018-07-27T00:10:33.797Z,21.00
2018-07-27T00:13:02.128Z,21.00
2018-07-27T00:17:58.686Z,20.90
2018-07-27T00:20:26.991Z,20.80
2018-07-27T00:22:55.332Z,20.80
2018-07-27T00:25:23.653Z,20.80
2018-07-27T00:27:51.905Z,20.70
2018-07-27T00:30:20.270Z,20.70
2018-07-27T00:32:48.630Z,20.70
2018-07-27T00:35:16.975Z,20.60
2018-07-27T00:37:45.376Z,20.60
2018-07-27T00:40:13.808Z,20.70
2018-07-27T00:42:42.099Z,20.60
2018-07-27T00:45:10.383Z,20.60
2018-07-27T00:47:38.687Z,20.50
2018-07-27T00:50:07.163Z,20.40
2018-07-27T00:52:35.491Z,20.40
2018-07-27T00:55:03.844Z,20.40
2018-07-27T00:57:32.197Z,20.40
2018-07-27T01:00:00.586Z,20.40
2018-07-27T01:02:28.957Z,20.40
2018-07-27T01:06:21.828Z,20.30
2018-07-27T01:08:50.202Z,20.30
2018-07-27T01:11:18.504Z,20.30
2018-07-27T01:13:46.821Z,20.30
2018-07-27T01:16:15.165Z,20.20
2018-07-27T01:18:43.523Z,20.20
2018-07-27T01:21:11.911Z,20.20
2018-07-27T01:23:40.324Z,20.10
2018-07-27T01:26:08.622Z,20.10
2018-07-27T01:28:36.991Z,20.00
2018-07-27T01:33:33.451Z,20.00
2018-07-27T01:36:01.768Z,20.00
2018-07-27T01:38:30.112Z,20.00
2018-07-27T01:40:58.424Z,19.90
2018-07-27T01:43:26.777Z,19.90
2018-07-27T01:45:55.080Z,19.90
2018-07-27T01:48:23.434Z,19.80
2018-07-27T01:50:51.765Z,19.80
2018-07-27T01:53:20.081Z,19.70
2018-07-27T01:55:48.424Z,19.70
2018-07-27T01:58:16.817Z,19.70
2018-07-27T02:00:45.157Z,19.60
2018-07-27T02:03:13.498Z,19.60
2018-07-27T02:05:41.767Z,19.60
2018-07-27T02:08:10.105Z,19.60
2018-07-27T02:10:39.439Z,19.60
2018-07-27T02:13:07.811Z,19.50
2018-07-27T02:15:36.199Z,19.50
2018-07-27T02:18:04.561Z,19.50
2018-07-27T02:20:32.911Z,19.50
2018-07-27T02:23:01.299Z,19.50
2018-07-27T02:25:29.651Z,19.40
2018-07-27T02:27:58.019Z,19.40
2018-07-27T02:30:26.465Z,19.40
2018-07-27T02:32:54.768Z,19.30
2018-07-27T02:35:24.052Z,19.30
2018-07-27T02:37:52.465Z,19.30
2018-07-27T02:40:20.730Z,19.30
2018-07-27T02:42:49.016Z,19.30
2018-07-27T02:45:17.387Z,19.30
2018-07-27T02:47:49.542Z,19.30
2018-07-27T02:50:18.706Z,19.30
2018-07-27T02:52:47.091Z,19.30
2018-07-27T02:55:15.422Z,19.20
2018-07-27T02:57:43.679Z,19.30
2018-07-27T03:00:11.961Z,19.30
2018-07-27T03:02:40.362Z,19.20
2018-07-27T03:05:09.009Z,19.30
2018-07-27T03:07:37.619Z,19.30
2018-07-27T03:10:06.372Z,19.20
2018-07-27T03:12:34.744Z,19.20
2018-07-27T03:15:03.160Z,19.20
2018-07-27T04:33:29.403Z,19.20
2018-07-27T04:35:57.766Z,20.30
2018-07-27T04:38:26.124Z,20.50
2018-07-27T04:40:54.458Z,20.60
2018-07-27T04:43:22.716Z,20.80
2018-07-27T04:45:51.010Z,21.60
2018-07-27T04:50:47.353Z,24.70
2018-07-27T04:53:15.637Z,25.60
2018-07-27T04:55:44.950Z,26.30
2018-07-27T04:58:13.279Z,27.30
2018-07-27T05:00:41.598Z,28.00
2018-07-27T05:03:09.861Z,28.50
2018-07-27T05:05:39.231Z,28.60
2018-07-27T05:08:07.986Z,28.30
2018-07-27T05:10:41.689Z,28.70
2018-07-27T05:13:10.063Z,28.80
2018-07-27T05:15:38.493Z,29.30
2018-07-27T05:18:06.904Z,29.20
2018-07-27T05:20:35.201Z,29.40
2018-07-27T05:23:03.471Z,29.40
2018-07-27T05:25:32.046Z,29.40
2018-07-27T05:28:00.355Z,29.60
2018-07-27T05:30:29.657Z,30.10
2018-07-27T05:32:58.083Z,30.30
2018-07-27T05:35:26.767Z,30.50
2018-07-27T05:37:55.070Z,30.20
2018-07-27T05:40:23.436Z,29.40
2018-07-27T05:42:51.705Z,30.30
2018-07-27T05:45:19.965Z,30.10
2018-07-27T05:47:48.347Z,30.40
2018-07-27T05:50:16.609Z,31.00
2018-07-27T05:52:44.870Z,31.30
2018-07-27T05:55:15.105Z,31.20
2018-07-27T05:57:43.413Z,31.70
2018-07-27T06:00:11.684Z,31.80
2018-07-27T06:02:39.989Z,31.80
2018-07-27T06:05:08.379Z,32.10
2018-07-27T06:07:36.991Z,32.60
2018-07-27T06:10:06.124Z,32.90
2018-07-27T06:12:34.465Z,33.30
2018-07-27T06:15:02.772Z,33.00
2018-07-27T06:17:31.084Z,32.80
2018-07-27T06:19:59.349Z,32.80
2018-07-27T06:22:27.691Z,32.70
2018-07-27T06:24:56.172Z,32.70
2018-07-27T06:27:24.567Z,32.40
2018-07-27T06:29:52.869Z,33.20
2018-07-27T06:32:21.138Z,33.60
2018-07-27T06:34:49.411Z,34.10
2018-07-27T06:37:17.700Z,33.70
2018-07-27T06:39:46.537Z,32.30
2018-07-27T06:42:15.587Z,33.10
2018-07-27T06:44:43.904Z,33.70
2018-07-27T06:47:12.278Z,33.70
2018-07-27T06:49:40.640Z,33.00
2018-07-27T06:52:08.949Z,33.40
2018-07-27T06:54:37.319Z,33.30
2018-07-27T06:57:05.751Z,33.40
2018-07-27T06:59:34.069Z,33.00
2018-07-27T07:02:02.442Z,33.40
2018-07-27T07:04:30.717Z,33.90
2018-07-27T07:06:58.964Z,33.80
2018-07-27T07:09:27.239Z,34.20
2018-07-27T07:11:55.541Z,34.10
2018-07-27T07:16:51.966Z,34.50
2018-07-27T07:19:20.281Z,33.80
2018-07-27T07:21:48.547Z,34.10
2018-07-27T07:24:16.873Z,34.40
2018-07-27T07:26:45.211Z,33.70
2018-07-27T07:29:13.490Z,33.80
2018-07-27T07:31:41.753Z,34.20
2018-07-27T07:34:09.992Z,34.00
2018-07-27T07:36:38.283Z,33.70
2018-07-27T07:39:09.299Z,34.20
2018-07-27T07:41:37.538Z,33.50
2018-07-27T07:44:05.916Z,33.80
2018-07-27T07:46:34.169Z,34.00
2018-07-27T07:49:05.536Z,33.80
2018-07-27T07:51:35.006Z,33.40
2018-07-27T07:54:03.307Z,33.00
2018-07-27T07:56:32.980Z,33.30
2018-07-27T07:59:01.617Z,33.40
2018-07-27T08:01:29.901Z,33.30
2018-07-27T08:03:58.146Z,33.50
2018-07-27T08:06:26.399Z,33.50
2018-07-27T08:08:55.247Z,33.70
2018-07-27T08:11:23.703Z,34.00
2018-07-27T08:13:52.161Z,33.90
2018-07-27T08:16:20.459Z,33.20
2018-07-27T08:18:48.785Z,33.20
2018-07-27T08:21:21.629Z,33.20
2018-07-27T08:23:49.921Z,33.40
2018-07-27T08:26:37.010Z,34.30
2018-07-27T08:29:05.323Z,34.50
2018-07-27T08:31:34.165Z,34.80
2018-07-27T08:34:03.526Z,34.60
2018-07-27T08:36:32.832Z,34.50
2018-07-27T08:39:01.482Z,34.60
2018-07-27T08:41:29.803Z,33.50
2018-07-27T08:43:59.030Z,34.20
2018-07-27T08:46:27.350Z,34.60
2018-07-27T08:48:56.112Z,33.80
2018-07-27T08:51:24.402Z,33.50
2018-07-27T08:53:53.073Z,33.30
2018-07-27T08:56:21.481Z,33.60
2018-07-27T08:58:49.815Z,34.80
2018-07-27T09:01:18.174Z,34.40
2018-07-27T09:03:47.117Z,34.50
2018-07-27T09:08:43.954Z,33.70
2018-07-27T09:11:12.258Z,33.60
2018-07-27T09:13:40.529Z,33.60
2018-07-27T09:16:09.125Z,33.20
2018-07-27T09:21:27.882Z,34.60
2018-07-27T09:23:56.153Z,33.30
2018-07-27T09:26:24.448Z,33.60
2018-07-27T09:28:52.706Z,33.40
2018-07-27T09:31:21.036Z,33.70
2018-07-27T09:33:49.384Z,33.40
2018-07-27T09:36:17.634Z,32.20
2018-07-27T09:38:45.930Z,32.40
2018-07-27T09:41:14.213Z,31.60
2018-07-27T09:43:42.462Z,31.30
2018-07-27T09:46:10.863Z,31.30
2018-07-27T09:48:39.153Z,31.70
2018-07-27T09:51:07.428Z,31.50
2018-07-27T09:53:35.726Z,32.20
2018-07-27T09:56:04.158Z,32.70
2018-07-27T09:58:32.447Z,33.60
2018-07-27T10:01:06.067Z,34.00
2018-07-27T10:03:34.330Z,33.00
2018-07-27T10:06:02.615Z,33.90
2018-07-27T10:08:30.916Z,33.90
2018-07-27T10:10:59.263Z,33.80
2018-07-27T10:13:27.699Z,33.70
2018-07-27T10:15:56.030Z,33.00
2018-07-27T10:18:24.344Z,32.80
2018-07-27T10:20:52.704Z,33.30
2018-07-27T10:23:21.122Z,32.50
2018-07-27T10:25:49.464Z,31.10
2018-07-27T10:28:17.716Z,32.00
2018-07-27T10:30:45.966Z,32.90
2018-07-27T10:33:14.343Z,33.40
2018-07-27T10:35:42.648Z,33.60
2018-07-27T10:38:10.996Z,33.80
2018-07-27T10:40:39.297Z,33.30
2018-07-27T10:43:07.583Z,33.50
2018-07-27T10:45:35.835Z,34.10
2018-07-27T10:48:04.198Z,33.60
2018-07-27T10:50:32.496Z,33.30
2018-07-27T10:53:00.790Z,33.60
2018-07-27T10:55:29.051Z,34.20
2018-07-27T10:57:57.373Z,35.00
2018-07-27T11:00:25.615Z,34.50
2018-07-27T11:02:53.948Z,32.80
2018-07-27T11:05:22.327Z,32.40
2018-07-27T11:07:50.680Z,33.00
2018-07-27T11:10:18.931Z,33.00
2018-07-27T11:12:47.234Z,32.60
2018-07-27T11:15:15.700Z,32.00
2018-07-27T11:20:12.253Z,31.40
2018-07-27T11:22:40.534Z,31.10
2018-07-27T11:25:08.862Z,31.70
2018-07-27T11:27:37.170Z,31.30
2018-07-27T11:30:05.516Z,32.20
2018-07-27T11:32:33.868Z,32.70
2018-07-27T11:35:02.272Z,33.20
2018-07-27T11:37:30.640Z,33.50
2018-07-27T11:39:59.948Z,33.40
2018-07-27T11:42:28.339Z,33.30
2018-07-27T11:44:56.912Z,33.10
2018-07-27T11:47:25.205Z,32.50
2018-07-27T11:49:53.536Z,32.50
2018-07-27T11:52:21.806Z,31.80
2018-07-27T11:54:50.090Z,31.80
2018-07-27T11:57:18.346Z,31.70
2018-07-27T11:59:46.628Z,31.70
2018-07-27T12:02:14.962Z,31.80
2018-07-27T12:04:43.316Z,32.60
2018-07-27T12:07:11.621Z,33.30
2018-07-27T12:09:39.961Z,32.60
2018-07-27T12:14:36.536Z,32.00
2018-07-27T12:17:04.727Z,32.10
2018-07-27T12:19:33.103Z,32.40
2018-07-27T12:22:02.327Z,32.30
2018-07-27T12:24:30.662Z,31.80
2018-07-27T12:26:58.951Z,31.70
2018-07-27T12:31:55.254Z,32.10
2018-07-27T12:34:23.545Z,32.10
2018-07-27T12:36:51.832Z,32.40
2018-07-27T12:39:20.083Z,32.80
2018-07-27T12:41:48.367Z,33.40
2018-07-27T12:44:16.594Z,33.80
2018-07-27T12:46:44.936Z,33.20
2018-07-27T12:49:13.171Z,32.10
2018-07-27T12:51:41.496Z,31.70
2018-07-27T12:54:09.770Z,31.50
2018-07-27T12:56:38.043Z,31.50
2018-07-27T12:59:06.312Z,31.80
2018-07-27T13:01:34.552Z,32.30
2018-07-27T13:04:02.867Z,32.30
2018-07-27T13:06:31.110Z,32.20
2018-07-27T13:08:59.401Z,31.50
2018-07-27T13:11:27.726Z,31.30
2018-07-27T13:13:56.028Z,31.30
2018-07-27T13:16:24.346Z,31.40
2018-07-27T13:18:52.651Z,31.80
2018-07-27T13:21:20.941Z,32.20
2018-07-27T13:23:57.394Z,31.60
2018-07-27T13:28:53.750Z,33.00
2018-07-27T13:34:44.445Z,31.80
2018-07-27T13:37:12.919Z,31.20
2018-07-27T13:39:41.842Z,30.90
2018-07-27T13:42:12.354Z,30.70
2018-07-27T13:44:41.148Z,31.10
2018-07-27T13:47:09.903Z,31.60
2018-07-27T13:49:38.223Z,32.00
2018-07-27T13:54:35.354Z,32.20
2018-07-27T13:57:03.744Z,31.80
2018-07-27T13:59:32.103Z,31.60
2018-07-27T14:02:02.391Z,32.00
2018-07-27T14:04:34.662Z,32.00
2018-07-27T14:07:03.926Z,32.00
2018-07-27T14:09:32.255Z,31.90
2018-07-27T14:12:00.558Z,32.10
2018-07-27T14:14:28.920Z,32.30
2018-07-27T14:16:57.238Z,32.20
2018-07-27T14:19:26.247Z,32.20
2018-07-27T14:21:54.502Z,32.30
2018-07-27T14:24:22.805Z,32.40
2018-07-27T14:26:51.065Z,32.30
2018-07-27T14:29:20.399Z,32.40
2018-07-27T14:31:48.661Z,32.50
2018-07-27T14:34:17.213Z,32.70
2018-07-27T14:36:45.550Z,32.40
2018-07-27T14:39:14.987Z,32.50
2018-07-27T14:41:43.801Z,32.60
2018-07-27T14:44:12.115Z,32.70
2018-07-27T14:46:40.569Z,32.80
2018-07-27T14:49:10.628Z,32.90
2018-07-27T14:51:39.464Z,32.90
2018-07-27T14:54:08.750Z,33.00
2018-07-27T14:56:37.228Z,32.70
2018-07-27T14:59:05.834Z,32.60
2018-07-27T15:01:34.148Z,32.90
2018-07-27T15:04:02.493Z,33.00
2018-07-27T15:06:31.793Z,32.60
2018-07-27T15:09:00.078Z,32.30
2018-07-27T15:11:28.374Z,32.10
2018-07-27T15:14:59.916Z,32.10
2018-07-27T15:17:28.189Z,32.20
2018-07-27T15:19:56.729Z,32.10
2018-07-27T15:22:25.076Z,32.10
2018-07-27T15:24:53.334Z,32.10
2018-07-27T15:29:49.775Z,31.90
2018-07-27T15:32:18.060Z,31.90
2018-07-27T15:34:46.307Z,31.70
2018-07-27T15:37:14.629Z,31.50
2018-07-27T15:39:42.870Z,31.40
2018-07-27T15:42:11.147Z,30.10
2018-07-27T15:44:39.474Z,29.90
2018-07-27T15:47:07.697Z,29.70
2018-07-27T15:49:35.973Z,29.60
2018-07-27T15:52:06.331Z,29.40
2018-07-27T15:57:02.710Z,29.80
2018-07-27T15:59:31.056Z,29.70
2018-07-27T16:01:59.317Z,29.60
2018-07-27T16:04:27.592Z,29.70
2018-07-27T16:06:55.970Z,29.80
2018-07-27T16:09:24.315Z,29.90
2018-07-27T16:11:52.542Z,29.80
2018-07-27T16:14:20.838Z,29.80
2018-07-27T16:16:49.228Z,29.70
2018-07-27T16:19:17.583Z,29.80
2018-07-27T16:21:45.878Z,30.00
2018-07-27T16:24:14.166Z,30.10
2018-07-27T16:26:42.510Z,30.30
2018-07-27T16:29:11.820Z,30.30
2018-07-27T16:31:40.111Z,30.20
2018-07-27T16:34:08.405Z,30.30
2018-07-27T16:36:36.770Z,30.60
2018-07-27T16:39:07.769Z,30.80
2018-07-27T16:41:36.117Z,30.60
2018-07-27T16:44:04.635Z,30.30
2018-07-27T16:46:32.917Z,29.80
2018-07-27T16:51:29.375Z,29.20
2018-07-27T16:53:57.756Z,29.10
2018-07-27T16:56:26.030Z,28.90
2018-07-27T16:58:54.366Z,29.00
2018-07-27T17:01:22.738Z,29.00
2018-07-27T17:03:51.098Z,29.00
2018-07-27T17:06:19.426Z,29.00
2018-07-27T17:08:47.827Z,29.10
2018-07-27T17:11:16.087Z,29.10
2018-07-27T17:13:44.452Z,29.00
2018-07-27T17:16:12.801Z,28.90
2018-07-27T17:18:41.192Z,29.00
2018-07-27T17:21:09.530Z,28.90
2018-07-27T17:23:37.852Z,28.90
2018-07-27T17:26:06.231Z,28.80
2018-07-27T17:28:34.607Z,28.70
2018-07-27T17:31:02.914Z,28.70
2018-07-27T17:33:31.346Z,28.50
2018-07-27T17:35:59.792Z,28.40
2018-07-27T17:38:28.101Z,28.20
2018-07-27T17:40:56.399Z,28.10
2018-07-27T17:43:24.794Z,28.00
2018-07-27T17:45:53.189Z,27.90
2018-07-27T17:48:21.632Z,27.80
2018-07-27T17:50:49.912Z,27.60
2018-07-27T17:53:18.264Z,27.40
2018-07-27T17:55:46.578Z,27.30
2018-07-27T17:58:14.975Z,27.20
2018-07-27T18:00:43.401Z,27.10
2018-07-27T18:03:11.737Z,27.00
2018-07-27T18:05:40.131Z,26.90
2018-07-27T18:08:08.545Z,26.90
2018-07-27T18:10:36.905Z,26.80
2018-07-27T18:13:06.352Z,26.70
2018-07-27T18:15:35.755Z,26.70
2018-07-27T18:18:05.541Z,26.60
2018-07-27T18:20:34.069Z,26.60
2018-07-27T18:23:02.576Z,26.60
2018-07-27T18:25:31.071Z,26.50
2018-07-27T18:27:59.691Z,26.40
2018-07-27T18:30:28.347Z,26.40
2018-07-27T18:32:56.780Z,26.40
2018-07-27T18:35:26.289Z,26.30
2018-07-27T18:37:54.792Z,26.30
2018-07-27T18:40:24.279Z,26.20
2018-07-27T18:45:53.582Z,26.00
2018-07-27T18:48:22.025Z,25.90
2018-07-27T18:50:50.341Z,25.90
2018-07-27T18:53:20.669Z,25.80
2018-07-27T18:55:49.066Z,25.80
2018-07-27T18:58:17.435Z,25.70
2018-07-27T19:00:45.807Z,25.60
2018-07-27T19:03:14.358Z,25.60
2018-07-27T19:05:42.639Z,25.50
2018-07-27T19:08:11.057Z,25.40
2018-07-27T19:10:39.443Z,25.50
2018-07-27T19:13:07.881Z,25.40
2018-07-27T19:15:36.290Z,25.40
2018-07-27T19:18:04.682Z,25.50
2018-07-27T19:20:33.042Z,25.40
2018-07-27T19:23:01.572Z,25.30
2018-07-27T19:25:29.909Z,25.20
2018-07-27T19:27:58.378Z,25.20
2018-07-27T19:30:26.648Z,25.10
2018-07-27T19:32:54.955Z,25.10
2018-07-27T19:35:23.384Z,24.90
2018-07-27T19:37:51.698Z,24.80
2018-07-27T19:40:20.099Z,24.70
2018-07-27T19:42:48.498Z,24.60
2018-07-27T19:45:16.889Z,24.60
2018-07-27T19:47:45.280Z,24.50
2018-07-27T19:50:13.636Z,24.40
2018-07-27T19:52:42.072Z,24.40
2018-07-27T19:55:10.386Z,24.40
2018-07-27T19:57:38.777Z,24.30
2018-07-27T20:00:07.708Z,24.30
2018-07-27T20:02:36.037Z,24.20
2018-07-27T20:05:04.439Z,24.10
2018-07-27T20:07:32.814Z,24.10
2018-07-27T20:10:01.167Z,24.00
2018-07-27T20:12:29.467Z,24.00
2018-07-27T20:14:57.888Z,23.90
2018-07-27T20:17:26.667Z,23.90
2018-07-27T20:19:54.918Z,23.80
2018-07-27T20:22:24.398Z,23.80
2018-07-27T20:24:52.882Z,23.70
2018-07-27T20:27:21.266Z,23.70
2018-07-27T20:29:49.598Z,23.60
2018-07-27T20:32:18.020Z,23.70
2018-07-27T20:34:46.358Z,23.60
2018-07-27T20:37:14.643Z,23.60
2018-07-27T20:39:43.127Z,23.60
2018-07-27T20:42:11.638Z,23.60
2018-07-27T20:44:41.099Z,23.60
2018-07-27T20:47:09.514Z,23.60
2018-07-27T20:49:37.883Z,23.60
2018-07-27T20:52:06.292Z,23.60
2018-07-27T20:54:34.640Z,23.50
2018-07-27T20:57:03.067Z,23.50
2018-07-27T20:59:31.392Z,23.50
2018-07-27T21:01:59.766Z,23.60
2018-07-27T21:06:56.237Z,23.40
2018-07-27T21:09:24.611Z,23.30
2018-07-27T21:11:52.993Z,23.30
2018-07-27T21:14:21.362Z,23.20
2018-07-27T21:16:53.547Z,23.10
2018-07-27T21:22:16.623Z,23.10
2018-07-27T21:24:45.124Z,23.00
2018-07-27T21:27:13.531Z,22.90
2018-07-27T21:29:41.911Z,22.90
2018-07-27T21:32:10.405Z,22.80
2018-07-27T21:34:38.773Z,22.80
2018-07-27T21:37:07.147Z,22.80
2018-07-27T21:39:35.527Z,22.60
2018-07-27T21:42:04.292Z,22.60
2018-07-27T21:44:32.855Z,22.60
2018-07-27T21:47:01.271Z,22.50
2018-07-27T21:49:29.755Z,22.40
2018-07-27T21:51:58.105Z,22.50
2018-07-27T21:54:26.514Z,22.50
2018-07-27T21:59:30.286Z,22.40
2018-07-27T22:01:58.711Z,22.30
2018-07-27T22:04:27.077Z,22.20
2018-07-27T22:06:55.533Z,22.20
2018-07-27T22:09:23.901Z,22.10
2018-07-27T22:11:52.226Z,22.20
2018-07-27T22:14:20.640Z,22.10
2018-07-27T22:16:49.020Z,22.10
2018-07-27T22:19:17.826Z,22.20
2018-07-27T22:21:48.187Z,22.20
2018-07-27T22:24:16.669Z,22.20
2018-07-27T22:26:45.134Z,22.20
2018-07-27T22:29:13.529Z,22.20
2018-07-27T22:31:41.950Z,22.20
2018-07-27T22:34:10.288Z,22.20
2018-07-27T22:36:38.704Z,22.10
2018-07-27T22:39:08.316Z,22.00
2018-07-27T22:41:38.075Z,21.90
2018-07-27T22:44:06.602Z,21.70
2018-07-27T22:46:35.059Z,21.70
2018-07-27T22:49:03.449Z,21.60
2018-07-27T22:51:31.911Z,21.60
2018-07-27T22:54:01.251Z,21.50
2018-07-27T22:56:29.636Z,21.50
2018-07-27T22:58:58.098Z,21.50
2018-07-27T23:01:26.473Z,21.50
2018-07-27T23:03:55.017Z,21.50
2018-07-27T23:06:23.396Z,21.50
2018-07-27T23:08:51.883Z,21.40
2018-07-27T23:11:20.310Z,21.50
2018-07-27T23:13:49.593Z,21.60
2018-07-27T23:16:17.966Z,21.50
2018-07-27T23:18:46.390Z,21.60
2018-07-27T23:21:14.739Z,21.50
2018-07-27T23:23:43.077Z,21.50
2018-07-27T23:26:11.492Z,21.50
2018-07-27T23:28:39.880Z,21.50
2018-07-27T23:31:08.203Z,21.50
2018-07-27T23:33:36.514Z,21.50
2018-07-27T23:36:05.831Z,21.50
2018-07-27T23:38:37.775Z,21.50
2018-07-27T23:41:07.203Z,21.40
2018-07-27T23:43:55.652Z,21.50
2018-07-27T23:46:25.014Z,21.50
2018-07-27T23:48:53.424Z,21.50
2018-07-27T23:51:21.751Z,21.40
2018-07-27T23:53:50.118Z,21.50
2018-07-27T23:56:18.512Z,21.40
2018-07-27T23:58:46.827Z,21.40
